Terminal Aerodrome Forecast
Issued by NWS Tampa Bay Area, FL

Home | Current Version | Previous Version | Text Only | Print | Product List | Glossary On
Versions: 1 2 3 4 5 6 7 8 9 10 11 12 13 14
082
FTUS42 KTBW 261120
TAFFMY
TAF
KFMY 261120Z 2612/2712 07006KT P6SM SKC
     FM261400 08010KT P6SM FEW040
     FM261800 07010G15KT P6SM SCT050
     FM270100 08009KT P6SM FEW050=

USA.gov is the U.S. government's official web portal to all federal, state and local government web resources and services.